In Rescue
 
Open Full Screen Window  High Contrast Mode
Wind Gusting 00 knots
10
February 25, 2021 3:29 PM CST
Weather Information
Wind Direction
  250 °
Wind Speed
  10 kt (12 mph)
Wind Gust
  00 kt (0 mph)
Altimeter
30.23 in
Visibility
10 SM
Temperature
03° C
37° F
Dewpoint
-04° C
25° F
Humidity
60%
1hr Rain Fall
00.00 in.
24hr Rain Fall
00.00 in.
Sky Condition
Missing
VFR

METAR KLYV 252129Z AUTO 25010KT 10SM 03/M04 A3023 RMK AO2

FAA Disclaimer: The data displayed is for advisory purposes only and is not to be used for flight planning or operations.
Missing Cloud Data